createdAt,value
2022-08-17T00:00:34.907Z,23.66
2022-08-17T00:01:16.711Z,23.66
2022-08-17T00:02:26.424Z,23.66
2022-08-17T00:03:17.247Z,23.66
2022-08-17T00:04:15.622Z,23.65
2022-08-17T00:05:15.642Z,23.65
2022-08-17T00:06:15.616Z,23.63
2022-08-17T00:07:15.590Z,23.65
2022-08-17T00:08:15.577Z,23.65
2022-08-17T00:09:18.601Z,23.63
2022-08-17T00:10:15.576Z,23.61
2022-08-17T00:11:15.597Z,23.60
2022-08-17T00:12:43.465Z,23.60
2022-08-17T00:13:16.516Z,23.57
2022-08-17T00:14:15.505Z,23.57
2022-08-17T00:15:15.541Z,23.57
2022-08-17T00:16:15.511Z,23.57
2022-08-17T00:17:15.494Z,23.54
2022-08-17T00:19:02.169Z,23.55
2022-08-17T00:19:16.466Z,23.55
2022-08-17T00:20:15.458Z,23.53
2022-08-17T00:21:15.492Z,23.53
2022-08-17T00:22:32.747Z,23.53
2022-08-17T00:23:16.428Z,23.53
2022-08-17T00:24:15.414Z,23.50
2022-08-17T00:25:15.424Z,23.50
2022-08-17T00:26:15.421Z,23.48
2022-08-17T00:27:16.389Z,23.47
2022-08-17T00:28:15.371Z,23.46
2022-08-17T00:29:19.674Z,23.47
2022-08-17T00:30:16.354Z,23.47
2022-08-17T00:31:15.371Z,23.47
2022-08-17T00:33:14.211Z,23.48
2022-08-17T00:33:17.046Z,23.47
2022-08-17T00:34:15.318Z,23.46
2022-08-17T00:35:15.467Z,23.43
2022-08-17T00:36:15.585Z,23.40
2022-08-17T00:37:15.392Z,23.40
2022-08-17T00:38:15.354Z,23.39
2022-08-17T00:39:15.288Z,23.36
2022-08-17T00:40:15.366Z,23.36
2022-08-17T00:41:15.275Z,23.35
2022-08-17T00:42:15.264Z,23.32
2022-08-17T00:43:15.226Z,23.33
2022-08-17T00:44:15.230Z,23.33
2022-08-17T00:45:15.214Z,23.32
2022-08-17T00:46:15.216Z,23.32
2022-08-17T00:47:15.198Z,23.28
2022-08-17T00:48:29.662Z,23.27
2022-08-17T00:49:16.168Z,23.23
2022-08-17T00:50:15.195Z,23.25
2022-08-17T00:51:15.145Z,23.22
2022-08-17T00:52:15.535Z,23.19
2022-08-17T00:53:15.116Z,23.19
2022-08-17T00:54:15.111Z,23.19
2022-08-17T00:55:15.099Z,23.17
2022-08-17T00:56:15.110Z,23.17
2022-08-17T00:57:15.060Z,23.17
2022-08-17T00:58:15.077Z,23.22
2022-08-17T00:59:15.069Z,23.19
2022-08-17T01:00:15.051Z,23.22
2022-08-17T01:01:21.973Z,23.23
2022-08-17T01:02:16.011Z,23.20
2022-08-17T01:03:15.012Z,23.22
2022-08-17T01:04:15.026Z,23.22
2022-08-17T01:05:14.995Z,23.25
2022-08-17T01:06:14.983Z,23.25
2022-08-17T01:07:14.998Z,23.27
2022-08-17T01:08:14.986Z,23.28
2022-08-17T01:09:15.101Z,23.27
2022-08-17T01:11:00.251Z,23.28
2022-08-17T01:11:15.925Z,23.28
2022-08-17T01:12:14.956Z,23.25
2022-08-17T01:13:14.912Z,23.22
2022-08-17T01:14:14.906Z,23.17
2022-08-17T01:15:14.885Z,23.17
2022-08-17T01:16:14.880Z,23.15
2022-08-17T01:17:14.916Z,23.13
2022-08-17T01:18:14.870Z,23.12
2022-08-17T01:19:14.863Z,23.10
2022-08-17T01:20:14.875Z,23.10
2022-08-17T01:21:14.828Z,23.10
2022-08-17T01:22:14.836Z,23.10
2022-08-17T01:23:19.885Z,23.07
2022-08-17T01:24:15.807Z,23.05
2022-08-17T01:25:14.790Z,23.07
2022-08-17T01:26:14.851Z,23.05
2022-08-17T01:27:14.787Z,23.04
2022-08-17T01:28:52.647Z,23.02
2022-08-17T01:29:15.750Z,23.07
2022-08-17T01:30:56.763Z,23.07
2022-08-17T01:31:15.729Z,23.09
2022-08-17T01:32:14.709Z,23.10
2022-08-17T01:33:14.744Z,23.12
2022-08-17T01:34:14.701Z,23.16
2022-08-17T01:35:14.691Z,23.15
2022-08-17T01:36:14.672Z,23.15
2022-08-17T01:37:14.682Z,23.13
2022-08-17T01:38:14.654Z,23.13
2022-08-17T01:39:14.636Z,23.12
2022-08-17T01:40:14.754Z,23.10
2022-08-17T01:41:14.631Z,23.10
2022-08-17T01:42:14.604Z,23.09
2022-08-17T01:43:14.605Z,23.05
2022-08-17T01:44:14.613Z,23.04
2022-08-17T01:45:14.596Z,23.00
2022-08-17T01:46:14.581Z,22.98
2022-08-17T01:47:14.562Z,22.97
2022-08-17T01:48:14.575Z,22.97
2022-08-17T01:49:14.555Z,22.94
2022-08-17T01:50:14.533Z,22.94
2022-08-17T01:51:14.541Z,22.90
2022-08-17T01:52:14.498Z,22.91
2022-08-17T01:53:14.498Z,22.90
2022-08-17T01:54:14.476Z,22.88
2022-08-17T01:55:14.497Z,22.90
2022-08-17T01:56:14.490Z,22.90
2022-08-17T01:57:14.488Z,22.92
2022-08-17T01:58:14.453Z,22.94
2022-08-17T01:59:14.442Z,22.97
2022-08-17T02:00:14.425Z,23.00
2022-08-17T02:01:14.529Z,23.01
2022-08-17T02:02:30.489Z,23.00
2022-08-17T02:03:15.402Z,23.01
2022-08-17T02:04:14.391Z,22.98
2022-08-17T02:05:14.440Z,22.92
2022-08-17T02:06:27.811Z,22.86
2022-08-17T02:07:15.347Z,22.82
2022-08-17T02:08:19.813Z,22.77
2022-08-17T02:09:16.898Z,22.73
2022-08-17T02:10:19.875Z,22.73
2022-08-17T02:11:15.335Z,22.73
2022-08-17T02:12:39.090Z,22.72
2022-08-17T02:13:15.284Z,22.70
2022-08-17T02:14:14.298Z,22.68
2022-08-17T02:15:14.277Z,22.65
2022-08-17T02:16:14.264Z,22.65
2022-08-17T02:17:14.256Z,22.64
2022-08-17T02:18:14.263Z,22.64
2022-08-17T02:19:14.236Z,22.62
2022-08-17T02:20:14.227Z,22.64
2022-08-17T02:21:14.217Z,22.62
2022-08-17T02:22:14.196Z,22.61
2022-08-17T02:23:14.229Z,22.61
2022-08-17T02:24:14.190Z,22.58
2022-08-17T02:25:14.166Z,22.60
2022-08-17T02:26:25.870Z,22.58
2022-08-17T02:27:15.148Z,22.55
2022-08-17T02:28:14.153Z,22.55
2022-08-17T02:29:14.146Z,22.54
2022-08-17T02:30:59.443Z,22.55
2022-08-17T02:31:15.144Z,22.52
2022-08-17T02:32:14.120Z,22.51
2022-08-17T02:33:15.119Z,22.51
2022-08-17T02:34:14.078Z,22.54
2022-08-17T02:35:14.070Z,22.52
2022-08-17T02:36:15.061Z,22.54
2022-08-17T02:37:14.073Z,22.54
2022-08-17T02:38:14.074Z,22.54
2022-08-17T02:39:14.031Z,22.49
2022-08-17T02:40:14.133Z,22.46
2022-08-17T02:41:14.009Z,22.42
2022-08-17T02:42:14.011Z,22.40
2022-08-17T02:43:13.980Z,22.39
2022-08-17T02:44:13.982Z,22.37
2022-08-17T02:45:14.964Z,22.37
2022-08-17T02:46:13.954Z,22.37
2022-08-17T02:47:13.976Z,22.36
2022-08-17T02:48:13.962Z,22.33
2022-08-17T02:49:14.925Z,22.36
2022-08-17T02:50:14.012Z,22.35
2022-08-17T02:51:13.912Z,22.33
2022-08-17T02:52:13.886Z,22.33
2022-08-17T02:53:13.913Z,22.30
2022-08-17T02:54:41.328Z,22.28
2022-08-17T02:55:14.867Z,22.27
2022-08-17T02:56:13.867Z,22.27
2022-08-17T02:57:13.868Z,22.25
2022-08-17T02:58:13.865Z,22.24
2022-08-17T02:59:13.836Z,22.25
2022-08-17T03:00:13.813Z,22.28
2022-08-17T03:01:13.849Z,22.30
2022-08-17T03:02:13.796Z,22.27
2022-08-17T03:03:13.844Z,22.27
2022-08-17T03:04:13.778Z,22.28
2022-08-17T03:05:13.759Z,22.28
2022-08-17T03:06:13.767Z,22.27
2022-08-17T03:07:13.726Z,22.27
2022-08-17T03:08:13.736Z,22.24
2022-08-17T03:09:13.711Z,22.24
2022-08-17T03:10:13.718Z,22.27
2022-08-17T03:11:13.653Z,22.27
2022-08-17T03:12:13.664Z,22.28
2022-08-17T03:13:13.636Z,22.28
2022-08-17T03:14:13.604Z,22.30
2022-08-17T03:15:13.603Z,22.28
2022-08-17T03:16:13.602Z,22.28
2022-08-17T03:17:17.380Z,22.28
2022-08-17T03:18:24.083Z,22.28
2022-08-17T03:19:14.578Z,22.28
2022-08-17T03:20:13.577Z,22.27
2022-08-17T03:21:13.601Z,22.27
2022-08-17T03:22:35.905Z,22.25
2022-08-17T03:23:14.529Z,22.24
2022-08-17T03:24:13.511Z,22.22
2022-08-17T03:25:13.507Z,22.22
2022-08-17T03:26:15.599Z,22.24
2022-08-17T03:27:13.499Z,22.25
2022-08-17T03:28:13.473Z,22.25
2022-08-17T03:29:13.470Z,22.27
2022-08-17T03:30:13.475Z,22.27
2022-08-17T03:31:13.438Z,22.27
2022-08-17T03:32:13.424Z,22.24
2022-08-17T03:33:13.409Z,22.22
2022-08-17T03:34:13.407Z,22.24
2022-08-17T03:35:13.430Z,22.21
2022-08-17T03:36:13.401Z,22.20
2022-08-17T03:37:13.369Z,22.21
2022-08-17T03:38:14.951Z,22.22
2022-08-17T03:39:13.369Z,22.22
2022-08-17T03:40:13.400Z,22.24
2022-08-17T03:41:13.332Z,22.21
2022-08-17T03:42:31.359Z,22.21
2022-08-17T03:43:14.316Z,22.21
2022-08-17T03:44:13.322Z,22.22
2022-08-17T03:45:15.539Z,22.24
2022-08-17T03:46:28.217Z,22.27
2022-08-17T03:47:14.274Z,22.27
2022-08-17T03:48:13.254Z,22.28
2022-08-17T03:49:13.302Z,22.28
2022-08-17T03:50:13.243Z,22.31
2022-08-17T03:51:14.870Z,22.35
2022-08-17T03:52:13.229Z,22.36
2022-08-17T03:53:13.197Z,22.33
2022-08-17T03:54:13.218Z,22.33
2022-08-17T03:55:13.199Z,22.33
2022-08-17T03:56:13.186Z,22.36
2022-08-17T03:57:13.164Z,22.36
2022-08-17T03:58:13.185Z,22.37
2022-08-17T03:59:20.850Z,22.37
2022-08-17T04:00:14.147Z,22.37
2022-08-17T04:01:13.320Z,22.37
2022-08-17T04:02:13.130Z,22.37
2022-08-17T04:03:13.133Z,22.37
2022-08-17T04:04:13.109Z,22.37
2022-08-17T04:05:13.116Z,22.39
2022-08-17T04:06:13.073Z,22.37
2022-08-17T04:07:13.087Z,22.37
2022-08-17T04:08:13.055Z,22.37
2022-08-17T04:09:13.033Z,22.36
2022-08-17T04:10:13.032Z,22.35
2022-08-17T04:11:13.050Z,22.37
2022-08-17T04:12:13.043Z,22.36
2022-08-17T04:13:13.011Z,22.36
2022-08-17T04:14:12.985Z,22.36
2022-08-17T04:15:12.984Z,22.37
2022-08-17T04:16:13.023Z,22.37
2022-08-17T04:17:12.989Z,22.37
2022-08-17T04:18:12.975Z,22.35
2022-08-17T04:19:12.945Z,22.36
2022-08-17T04:20:12.944Z,22.36
2022-08-17T04:21:12.937Z,22.36
2022-08-17T04:22:31.766Z,22.36
2022-08-17T04:23:13.894Z,22.39
2022-08-17T04:24:12.883Z,22.39
2022-08-17T04:25:12.885Z,22.39
2022-08-17T04:26:12.890Z,22.39
2022-08-17T04:27:13.909Z,22.42
2022-08-17T04:28:15.825Z,22.45
2022-08-17T04:29:12.841Z,22.39
2022-08-17T04:30:12.842Z,22.37
2022-08-17T04:31:12.821Z,22.37
2022-08-17T04:32:12.817Z,22.37
2022-08-17T04:33:13.099Z,22.35
2022-08-17T04:34:12.801Z,22.33
2022-08-17T04:35:12.795Z,22.30
2022-08-17T04:36:12.790Z,22.30
2022-08-17T04:37:12.789Z,22.27
2022-08-17T04:38:12.768Z,22.27
2022-08-17T04:39:12.752Z,22.28
2022-08-17T04:40:12.843Z,22.31
2022-08-17T04:41:12.721Z,22.28
2022-08-17T04:42:12.743Z,22.30
2022-08-17T04:43:12.697Z,22.30
2022-08-17T04:44:12.700Z,22.35
2022-08-17T04:45:13.686Z,22.37
2022-08-17T04:46:12.682Z,22.40
2022-08-17T04:47:13.046Z,22.45
2022-08-17T04:48:12.665Z,22.47
2022-08-17T04:49:12.632Z,22.52
2022-08-17T04:50:12.627Z,22.57
2022-08-17T04:51:12.625Z,22.61
2022-08-17T04:52:12.605Z,22.68
2022-08-17T04:53:13.620Z,22.75
2022-08-17T04:54:12.575Z,22.83
2022-08-17T04:55:12.573Z,22.91
2022-08-17T04:56:16.594Z,23.02
2022-08-17T04:57:12.546Z,23.23
2022-08-17T04:58:12.563Z,23.66
2022-08-17T04:59:12.548Z,24.40
2022-08-17T05:00:12.525Z,25.09
2022-08-17T05:01:12.560Z,25.72
2022-08-17T05:02:12.513Z,26.29
2022-08-17T05:03:12.532Z,26.73
2022-08-17T05:04:21.410Z,27.14
2022-08-17T05:05:13.506Z,27.49
2022-08-17T05:06:12.477Z,27.84
2022-08-17T05:07:12.462Z,28.06
2022-08-17T05:08:12.460Z,28.09
2022-08-17T05:09:12.452Z,28.46
2022-08-17T05:10:12.424Z,28.81
2022-08-17T05:11:12.412Z,29.18
2022-08-17T05:12:12.398Z,29.48
2022-08-17T05:13:12.402Z,29.78
2022-08-17T05:14:12.376Z,30.05
2022-08-17T05:15:12.372Z,30.26
2022-08-17T05:16:12.364Z,30.51
2022-08-17T05:17:12.374Z,30.77
2022-08-17T05:18:12.333Z,30.86
2022-08-17T05:19:12.327Z,31.04
2022-08-17T05:20:12.319Z,31.29
2022-08-17T05:21:12.306Z,31.53
2022-08-17T05:22:12.323Z,31.80
2022-08-17T05:23:12.306Z,31.91
2022-08-17T05:24:38.430Z,32.08
2022-08-17T05:25:13.268Z,32.29
2022-08-17T05:26:12.996Z,32.51
2022-08-17T05:27:18.930Z,32.70
2022-08-17T05:28:13.277Z,32.75
2022-08-17T05:29:12.239Z,32.10
2022-08-17T05:30:12.245Z,31.28
2022-08-17T05:31:12.226Z,30.70
2022-08-17T05:32:39.509Z,30.00
2022-08-17T05:33:13.210Z,29.67
2022-08-17T05:34:12.217Z,29.48
2022-08-17T05:35:12.190Z,29.14
2022-08-17T05:36:42.300Z,28.89
2022-08-17T05:37:13.143Z,28.88
2022-08-17T05:38:12.151Z,29.06
2022-08-17T05:39:16.545Z,29.08
2022-08-17T05:40:13.114Z,28.93
2022-08-17T05:41:12.121Z,28.74
2022-08-17T05:42:12.124Z,28.62
2022-08-17T05:43:12.083Z,28.73
2022-08-17T05:44:12.108Z,28.89
2022-08-17T05:45:12.090Z,29.21
2022-08-17T05:46:12.070Z,29.78
2022-08-17T05:47:12.060Z,30.22
2022-08-17T05:48:12.026Z,30.58
2022-08-17T05:49:12.055Z,31.04
2022-08-17T05:50:12.019Z,31.54
2022-08-17T05:51:13.034Z,31.96
2022-08-17T05:52:11.998Z,32.30
2022-08-17T05:53:12.000Z,32.56
2022-08-17T05:54:11.988Z,32.99
2022-08-17T05:55:11.984Z,33.19
2022-08-17T05:56:30.276Z,33.15
2022-08-17T05:57:12.975Z,33.19
2022-08-17T05:58:12.300Z,33.37
2022-08-17T05:59:11.922Z,33.45
2022-08-17T06:00:11.941Z,33.45
2022-08-17T06:01:11.954Z,33.49
2022-08-17T06:02:11.909Z,33.18
2022-08-17T06:03:11.873Z,32.85
2022-08-17T06:04:11.916Z,32.77
2022-08-17T06:05:11.873Z,32.82
2022-08-17T06:06:11.854Z,32.87
2022-08-17T06:07:11.886Z,32.77
2022-08-17T06:08:11.834Z,32.85
2022-08-17T06:09:11.820Z,32.77
2022-08-17T06:10:11.829Z,32.75
2022-08-17T06:11:11.812Z,32.72
2022-08-17T06:12:14.244Z,32.72
2022-08-17T06:13:12.797Z,32.85
2022-08-17T06:14:11.766Z,32.89
2022-08-17T06:15:11.784Z,32.85
2022-08-17T06:16:33.627Z,33.04
2022-08-17T06:17:12.748Z,33.00
2022-08-17T06:18:14.826Z,32.92
2022-08-17T06:19:12.729Z,32.79
2022-08-17T06:20:11.740Z,32.79
2022-08-17T06:21:11.725Z,32.78
2022-08-17T06:22:11.700Z,33.01
2022-08-17T06:23:11.698Z,33.28
2022-08-17T06:24:11.699Z,33.61
2022-08-17T06:25:11.696Z,33.71
2022-08-17T06:26:11.662Z,33.65
2022-08-17T06:27:11.659Z,33.63
2022-08-17T06:28:13.953Z,33.57
2022-08-17T06:29:18.641Z,33.49
2022-08-17T06:30:12.631Z,33.47
2022-08-17T06:31:11.658Z,33.57
2022-08-17T06:32:12.626Z,33.66
2022-08-17T06:33:11.594Z,33.79
2022-08-17T06:34:11.605Z,33.84
2022-08-17T06:35:11.586Z,33.97
2022-08-17T06:36:11.577Z,34.16
2022-08-17T06:37:11.549Z,34.17
2022-08-17T06:38:21.804Z,34.21
2022-08-17T06:39:12.522Z,34.15
2022-08-17T06:40:11.622Z,33.84
2022-08-17T06:41:11.511Z,33.57
2022-08-17T06:43:02.035Z,33.57
2022-08-17T06:43:12.936Z,33.63
2022-08-17T06:44:11.480Z,33.78
2022-08-17T06:45:11.504Z,33.72
2022-08-17T06:46:11.523Z,33.78
2022-08-17T06:47:11.776Z,33.86
2022-08-17T06:48:11.440Z,33.68
2022-08-17T06:49:11.423Z,33.39
2022-08-17T06:50:11.441Z,33.18
2022-08-17T06:51:11.401Z,33.11
2022-08-17T06:52:11.416Z,33.01
2022-08-17T06:53:12.413Z,32.85
2022-08-17T06:54:11.392Z,32.38
2022-08-17T06:55:18.035Z,31.88
2022-08-17T06:56:12.359Z,31.38
2022-08-17T06:57:11.359Z,31.10
2022-08-17T06:58:16.431Z,30.94
2022-08-17T06:59:12.373Z,30.91
2022-08-17T07:00:11.313Z,30.89
2022-08-17T07:01:11.407Z,30.62
2022-08-17T07:02:11.314Z,30.54
2022-08-17T07:03:11.306Z,30.45
2022-08-17T07:04:11.931Z,30.27
2022-08-17T07:05:11.279Z,30.11
2022-08-17T07:06:11.309Z,29.87
2022-08-17T07:07:11.292Z,29.57
2022-08-17T07:08:11.249Z,29.45
2022-08-17T07:09:11.233Z,29.43
2022-08-17T07:10:11.263Z,29.37
2022-08-17T07:11:11.218Z,29.19
2022-08-17T07:12:11.400Z,29.00
2022-08-17T07:13:11.181Z,28.86
2022-08-17T07:14:16.556Z,28.80
2022-08-17T07:15:12.210Z,28.80
2022-08-17T07:16:11.161Z,28.85
2022-08-17T07:17:11.174Z,28.83
2022-08-17T07:18:11.335Z,28.88
2022-08-17T07:19:11.349Z,28.92
2022-08-17T07:20:11.121Z,28.93
2022-08-17T07:21:15.508Z,28.96
2022-08-17T07:22:12.202Z,28.96
2022-08-17T07:23:11.097Z,28.95
2022-08-17T07:24:11.155Z,28.86
2022-08-17T07:25:12.077Z,28.83
2022-08-17T07:26:11.207Z,28.81
2022-08-17T07:27:11.065Z,28.81
2022-08-17T07:28:11.059Z,28.78
2022-08-17T07:29:11.050Z,28.78
2022-08-17T07:30:11.306Z,28.81
2022-08-17T07:31:11.036Z,28.81
2022-08-17T07:32:10.997Z,28.76
2022-08-17T07:33:12.546Z,28.67
2022-08-17T07:34:11.002Z,28.70
2022-08-17T07:35:11.645Z,28.78
2022-08-17T07:36:10.970Z,28.83
2022-08-17T07:37:10.952Z,28.89
2022-08-17T07:38:24.188Z,28.95
2022-08-17T07:39:11.987Z,28.96
2022-08-17T07:40:15.939Z,28.98
2022-08-17T07:41:11.942Z,28.96
2022-08-17T07:42:10.915Z,29.02
2022-08-17T07:43:13.040Z,29.08
2022-08-17T07:44:11.892Z,29.12
2022-08-17T07:45:10.873Z,29.15
2022-08-17T07:46:10.894Z,29.18
2022-08-17T07:47:10.857Z,29.24
2022-08-17T07:48:10.848Z,29.24
2022-08-17T07:49:11.901Z,29.16
2022-08-17T07:50:10.858Z,29.08
2022-08-17T07:51:10.817Z,29.14
2022-08-17T07:52:48.338Z,29.18
2022-08-17T07:53:11.794Z,29.19
2022-08-17T07:54:14.532Z,29.16
2022-08-17T07:55:10.816Z,29.23
2022-08-17T07:56:10.777Z,29.26
2022-08-17T07:57:10.770Z,29.23
2022-08-17T07:58:10.761Z,29.21
2022-08-17T07:59:10.752Z,29.26
2022-08-17T08:00:12.741Z,29.24
2022-08-17T08:01:11.751Z,29.18
2022-08-17T08:02:10.746Z,29.28
2022-08-17T08:03:10.691Z,29.28
2022-08-17T08:04:10.707Z,29.18
2022-08-17T08:05:10.700Z,29.15
2022-08-17T08:06:10.676Z,29.15
2022-08-17T08:07:10.660Z,29.21
2022-08-17T08:08:10.664Z,29.31
2022-08-17T08:09:10.634Z,29.36
2022-08-17T08:10:10.664Z,29.46
2022-08-17T08:11:10.620Z,29.53
2022-08-17T08:12:10.614Z,29.61
2022-08-17T08:13:14.188Z,29.71
2022-08-17T08:14:10.594Z,29.71
2022-08-17T08:15:10.620Z,29.76
2022-08-17T08:16:10.573Z,29.82
2022-08-17T08:17:10.571Z,29.86
2022-08-17T08:18:10.557Z,29.87
2022-08-17T08:19:10.548Z,29.83
2022-08-17T08:20:34.886Z,29.85
2022-08-17T08:21:11.527Z,29.87
2022-08-17T08:22:10.515Z,29.87
2022-08-17T08:23:10.521Z,29.87
2022-08-17T08:24:10.489Z,29.73
2022-08-17T08:25:10.486Z,29.71
2022-08-17T08:26:12.362Z,29.78
2022-08-17T08:27:10.483Z,29.82
2022-08-17T08:28:10.470Z,29.85
2022-08-17T08:29:10.448Z,29.97
2022-08-17T08:30:10.429Z,29.97
2022-08-17T08:31:10.446Z,29.85
2022-08-17T08:32:10.434Z,29.73
2022-08-17T08:33:10.418Z,29.58
2022-08-17T08:35:00.495Z,29.53
2022-08-17T08:35:11.395Z,29.52
2022-08-17T08:36:10.394Z,29.58
2022-08-17T08:37:16.505Z,29.63
2022-08-17T08:38:11.354Z,29.78
2022-08-17T08:39:10.353Z,29.87
2022-08-17T08:40:10.424Z,29.94
2022-08-17T08:41:10.340Z,30.05
2022-08-17T08:42:10.341Z,30.13
2022-08-17T08:43:10.316Z,30.19
2022-08-17T08:44:10.305Z,30.26
2022-08-17T08:45:10.331Z,30.31
2022-08-17T08:46:10.268Z,30.27
2022-08-17T08:47:10.305Z,30.35
2022-08-17T08:48:23.176Z,30.26
2022-08-17T08:49:11.939Z,30.07
2022-08-17T08:50:36.996Z,30.00
2022-08-17T08:51:11.233Z,29.98
2022-08-17T08:52:10.252Z,30.05
2022-08-17T08:53:10.205Z,30.13
2022-08-17T08:54:10.214Z,30.22
2022-08-17T08:55:10.185Z,30.26
2022-08-17T08:56:10.192Z,30.10
2022-08-17T08:57:32.705Z,30.13
2022-08-17T08:58:32.181Z,30.22
2022-08-17T08:59:11.149Z,30.31
2022-08-17T09:00:10.149Z,30.35
2022-08-17T09:01:16.926Z,30.43
2022-08-17T09:02:11.138Z,30.47
2022-08-17T09:03:10.117Z,30.51
2022-08-17T09:04:24.170Z,30.60
2022-08-17T09:05:15.786Z,30.67
2022-08-17T09:06:32.324Z,30.69
2022-08-17T09:07:11.056Z,30.46
2022-08-17T09:08:10.059Z,30.34
2022-08-17T09:09:10.436Z,30.27
2022-08-17T09:10:10.085Z,30.34
2022-08-17T09:11:10.017Z,30.47
2022-08-17T09:12:10.020Z,30.47
2022-08-17T09:13:10.673Z,30.42
2022-08-17T09:14:20.998Z,30.46
2022-08-17T09:15:13.127Z,30.60
2022-08-17T09:16:09.990Z,30.61
2022-08-17T09:17:09.970Z,30.70
2022-08-17T09:18:59.982Z,30.77
2022-08-17T09:19:10.980Z,30.77
2022-08-17T09:20:09.951Z,30.82
2022-08-17T09:21:09.941Z,30.91
2022-08-17T09:22:09.939Z,31.01
2022-08-17T09:23:09.924Z,30.99
2022-08-17T09:24:09.902Z,30.98
2022-08-17T09:25:09.911Z,30.76
2022-08-17T09:26:09.891Z,30.77
2022-08-17T09:27:09.881Z,30.80
2022-08-17T09:28:09.875Z,30.76
2022-08-17T09:29:09.874Z,30.86
2022-08-17T09:30:09.867Z,30.97
2022-08-17T09:31:09.844Z,30.97
2022-08-17T09:32:09.826Z,30.95
2022-08-17T09:33:09.818Z,30.99
2022-08-17T09:34:09.817Z,31.07
2022-08-17T09:35:09.822Z,31.19
2022-08-17T09:36:09.788Z,31.25
2022-08-17T09:37:09.775Z,31.26
2022-08-17T09:38:09.766Z,31.10
2022-08-17T09:39:09.767Z,30.99
2022-08-17T09:40:09.861Z,30.98
2022-08-17T09:41:09.747Z,31.02
2022-08-17T09:42:09.730Z,31.13
2022-08-17T09:43:09.719Z,31.26
2022-08-17T09:44:13.959Z,31.41
2022-08-17T09:45:10.703Z,31.51
2022-08-17T09:46:09.707Z,31.58
2022-08-17T09:47:09.694Z,31.62
2022-08-17T09:48:09.678Z,31.63
2022-08-17T09:49:09.662Z,31.65
2022-08-17T09:50:09.662Z,31.69
2022-08-17T09:51:09.651Z,31.73
2022-08-17T09:52:09.635Z,31.85
2022-08-17T09:53:09.641Z,31.88
2022-08-17T09:54:37.674Z,31.92
2022-08-17T09:55:10.594Z,31.96
2022-08-17T09:56:09.598Z,32.07
2022-08-17T09:57:28.566Z,32.18
2022-08-17T09:58:10.575Z,32.25
2022-08-17T09:59:09.565Z,32.35
2022-08-17T10:00:09.580Z,32.43
2022-08-17T10:01:09.616Z,32.25
2022-08-17T10:02:09.555Z,32.21
2022-08-17T10:03:09.527Z,32.25
2022-08-17T10:04:09.528Z,32.15
2022-08-17T10:05:09.496Z,32.29
2022-08-17T10:06:09.509Z,32.25
2022-08-17T10:07:09.487Z,32.37
2022-08-17T10:08:09.527Z,32.48
2022-08-17T10:09:09.471Z,32.40
2022-08-17T10:10:13.931Z,32.37
2022-08-17T10:11:09.461Z,32.48
2022-08-17T10:12:09.450Z,32.50
2022-08-17T10:13:09.649Z,32.35
2022-08-17T10:14:36.822Z,32.40
2022-08-17T10:15:10.416Z,32.44
2022-08-17T10:16:09.393Z,32.55
2022-08-17T10:17:09.404Z,32.45
2022-08-17T10:18:09.372Z,32.48
2022-08-17T10:19:09.367Z,32.59
2022-08-17T10:20:09.358Z,32.63
2022-08-17T10:21:09.356Z,32.70
2022-08-17T10:22:14.770Z,32.41
2022-08-17T10:23:10.326Z,32.18
2022-08-17T10:24:09.350Z,32.08
2022-08-17T10:25:22.994Z,32.13
2022-08-17T10:26:10.309Z,32.22
2022-08-17T10:27:09.308Z,32.38
2022-08-17T10:28:19.701Z,32.33
2022-08-17T10:29:10.277Z,32.25
2022-08-17T10:30:09.257Z,32.08
2022-08-17T10:32:10.236Z,32.06
2022-08-17T10:33:09.247Z,32.00
2022-08-17T10:34:09.242Z,32.10
2022-08-17T10:35:09.209Z,32.32
2022-08-17T10:36:10.914Z,32.52
2022-08-17T10:37:09.209Z,32.48
2022-08-17T10:38:09.182Z,32.43
2022-08-17T10:39:09.202Z,32.21
2022-08-17T10:40:09.249Z,32.00
2022-08-17T10:41:09.174Z,31.89
2022-08-17T10:42:09.145Z,31.86
2022-08-17T10:43:09.141Z,32.06
2022-08-17T10:44:39.608Z,32.21
2022-08-17T10:45:10.124Z,32.44
2022-08-17T10:46:10.703Z,32.65
2022-08-17T10:47:10.106Z,32.84
2022-08-17T10:48:09.309Z,32.85
2022-08-17T10:49:09.087Z,32.89
2022-08-17T10:50:09.078Z,33.06
2022-08-17T10:51:09.068Z,33.06
2022-08-17T10:52:09.062Z,33.11
2022-08-17T10:53:09.086Z,33.12
2022-08-17T10:54:09.123Z,33.09
2022-08-17T10:55:09.030Z,33.09
2022-08-17T10:56:09.010Z,33.11
2022-08-17T10:57:09.008Z,33.09
2022-08-17T10:58:09.010Z,32.93
2022-08-17T10:59:09.007Z,32.82
2022-08-17T11:00:08.985Z,32.79
2022-08-17T11:01:09.040Z,32.85
2022-08-17T11:02:08.971Z,32.87
2022-08-17T11:03:08.960Z,32.85
2022-08-17T11:04:08.942Z,32.88
2022-08-17T11:05:08.941Z,32.99
2022-08-17T11:06:08.916Z,33.16
2022-08-17T11:07:08.931Z,33.47
2022-08-17T11:08:08.893Z,33.69
2022-08-17T11:09:08.873Z,33.79
2022-08-17T11:10:08.874Z,33.86
2022-08-17T11:11:08.903Z,33.81
2022-08-17T11:12:08.883Z,33.84
2022-08-17T11:13:08.853Z,33.81
2022-08-17T11:14:08.834Z,33.66
2022-08-17T11:15:08.831Z,33.50
2022-08-17T11:16:08.830Z,33.31
2022-08-17T11:17:08.805Z,33.34
2022-08-17T11:18:08.822Z,33.57
2022-08-17T11:19:08.787Z,33.68
2022-08-17T11:20:08.790Z,33.81
2022-08-17T11:21:08.769Z,33.91
2022-08-17T11:22:08.760Z,33.95
2022-08-17T11:23:08.784Z,33.88
2022-08-17T11:24:09.308Z,33.72
2022-08-17T11:25:08.744Z,33.76
2022-08-17T11:26:08.733Z,33.73
2022-08-17T11:27:08.700Z,33.84
2022-08-17T11:28:08.726Z,33.69
2022-08-17T11:29:08.706Z,33.57
2022-08-17T11:30:08.681Z,33.41
2022-08-17T11:31:08.669Z,33.34
2022-08-17T11:32:11.212Z,33.38
2022-08-17T11:33:08.681Z,33.26
2022-08-17T11:34:08.643Z,33.23
2022-08-17T11:35:08.636Z,33.01
2022-08-17T11:36:08.617Z,33.01
2022-08-17T11:37:08.619Z,32.92
2022-08-17T11:38:16.101Z,33.07
2022-08-17T11:39:09.628Z,33.16
2022-08-17T11:40:08.696Z,33.31
2022-08-17T11:41:08.594Z,33.38
2022-08-17T11:42:08.572Z,33.42
2022-08-17T11:43:08.573Z,33.22
2022-08-17T11:44:08.551Z,33.22
2022-08-17T11:45:08.537Z,33.18
2022-08-17T11:46:08.523Z,33.15
2022-08-17T11:47:08.550Z,33.21
2022-08-17T11:48:27.131Z,33.28
2022-08-17T11:49:09.523Z,33.34
2022-08-17T11:50:08.488Z,33.39
2022-08-17T11:51:08.478Z,33.45
2022-08-17T11:52:08.469Z,33.54
2022-08-17T11:53:08.467Z,33.63
2022-08-17T11:54:31.859Z,33.72
2022-08-17T11:55:33.852Z,33.79
2022-08-17T11:56:09.434Z,33.87
2022-08-17T11:57:08.451Z,33.79
2022-08-17T11:58:08.426Z,33.66
2022-08-17T11:59:08.430Z,33.68
2022-08-17T12:00:08.480Z,33.68
2022-08-17T12:01:08.422Z,33.66
2022-08-17T12:02:08.366Z,33.61
2022-08-17T12:03:08.402Z,33.61
2022-08-17T12:04:08.417Z,33.81
2022-08-17T12:05:11.814Z,34.16
2022-08-17T12:06:08.345Z,34.32
2022-08-17T12:07:08.316Z,34.17
2022-08-17T12:08:08.316Z,33.75
2022-08-17T12:09:08.322Z,33.39
2022-08-17T12:10:08.315Z,33.29
2022-08-17T12:11:08.298Z,33.29
2022-08-17T12:12:12.609Z,33.29
2022-08-17T12:13:09.281Z,33.50
2022-08-17T12:14:08.292Z,33.66
2022-08-17T12:15:11.141Z,33.61
2022-08-17T12:16:08.243Z,33.63
2022-08-17T12:17:08.220Z,33.78
2022-08-17T12:18:08.238Z,33.90
2022-08-17T12:19:08.201Z,34.19
2022-08-17T12:20:08.297Z,34.10
2022-08-17T12:21:08.196Z,33.88
2022-08-17T12:22:08.211Z,33.73
2022-08-17T12:23:08.216Z,33.68
2022-08-17T12:24:08.164Z,33.68
2022-08-17T12:25:08.153Z,33.66
2022-08-17T12:26:08.144Z,33.65
2022-08-17T12:27:08.159Z,33.37
2022-08-17T12:28:08.303Z,33.28
2022-08-17T12:29:09.385Z,33.22
2022-08-17T12:30:09.109Z,33.06
2022-08-17T12:31:08.107Z,33.07
2022-08-17T12:32:08.121Z,33.03
2022-08-17T12:33:08.112Z,33.06
2022-08-17T12:34:08.062Z,33.11
2022-08-17T12:35:08.048Z,33.19
2022-08-17T12:36:08.068Z,33.18
2022-08-17T12:37:08.070Z,33.21
2022-08-17T12:38:32.009Z,33.21
2022-08-17T12:39:14.287Z,33.22
2022-08-17T12:40:09.051Z,33.34
2022-08-17T12:41:08.009Z,33.47
2022-08-17T12:42:08.040Z,33.50
2022-08-17T12:43:08.004Z,33.56
2022-08-17T12:44:07.997Z,33.63
2022-08-17T12:45:07.964Z,33.69
2022-08-17T12:46:13.423Z,33.78
2022-08-17T12:47:08.984Z,33.90
2022-08-17T12:48:07.940Z,33.98
2022-08-17T12:49:07.925Z,34.12
2022-08-17T12:50:07.930Z,34.31
2022-08-17T12:51:08.933Z,34.32
2022-08-17T12:52:07.975Z,34.47
2022-08-17T12:53:07.899Z,34.65